Cmp Pendleton, California
Current Conditions -  °F | °C
As of 12:54 PM on Saturday 20 Dec 2014 (Local Time) from KNFG Reporting Station
Scattered Clouds Scattered Clouds  
Wind Chill: 64°   Ceiling: Unl
Heat Index: 64°   Visibility: 7mi
Dew Point: 51°   Wind: 6mph
Humidity: 63%   Direction: NA
Pressure: 30.13"   Gusts: NA
Location:  33.356°N, 117.397°W
Report Text: KNFG 202054Z AUTO VRB05KT 7SM SCT033 18/11 A3013 RMK AO2 SLP203 T01780106 56026 $
Loading
Personal Weather Stations






























Interactive Weather Map New forecast layout! Learn more

10-Day Weather Forecast

Advertisements
Track Severe Weather on mobile